Airfield :
LOGIN :

Register | Disclaimer

   EN    FR    IT 

 










Legend :    VFR   Marginal VFR   IFR   Intensive IFR   Very Intensive IFR
Visi :
Ceiling :
>= 8 km
>= 3000ft
5 to 8 km
1000 to 3000 ft
1500m to 5 km
500 to 1000 ft
800 to 1500m
200 to 500 ft
< 800m
< 200 ft
Symbols :   Thunderstorms  Fog  Heavy snow  Heavy precipitations  Wind > 20 kt
SIGMETs :     Misc.  Thunderstorms  Icing  Turbulence  Mountain Waves  Volcanic Ashes







- Airport Elevation : 1115 ft
- IATA code : GRZ


LOWG - Graz

CURRENT METAR :
  • 200150Z AUTO 31004KT 270V350 9999 RA FEW048 BKN070 14/12 Q1020

EXPIRED METARs :
  • 200120Z AUTO VRB03KT 5000 +RA FEW042 SCT050 BKN070 14/13 Q1021
  • 200050Z AUTO 30008KT 260V330 9999 -SHRA FEW060 BKN070 15/13 Q1021
  • 200020Z AUTO 31006KT 9999 -SHRA FEW070 OVC080 15/13 Q1020
  • 192350Z AUTO 26004KT 220V310 9999 FEW048 BKN080 15/13 Q1020
  • 192320Z AUTO 27003KT 200V330 9999 -RA FEW070 BKN080 14/13 Q1020

TAF TAF LOWG
Valid from the 20 at 00:00 until the 21 at 00:00 UTC


192315Z 2000/2024 35004KT 9999 FEW040 BKN100 TX22/2015Z TN12/2024Z
TEMPO 2000/2009 33008KT -SHRA SCT060 BKN080
PROB30
TEMPO 2000/2003 6000 SHRA FEW040CB BKN050
TEMPO 2011/2017 35012KT
No reported NOTAMs for that airfield.



MET'MAP, your aeronautical weather chart ! - Copyright ORBIFLY December 2007 - Disclaimer

ORBIFLY MET'MAP TEAM :

Programming & Development : Alexandra Zaïnal
Concept & Development : Baudouin d'Aumeries
Co-Development & Prog : Marc-Olivier Méhu
Technical & hardware support : Manuel Goepfert

Contact : metmap@orbifly.com




SOURCES & CREDITS :

   NOAA